createdAt,value
2023-04-02T00:03:08.532Z,2.10
2023-04-02T00:06:56.585Z,1.85
2023-04-02T00:10:46.892Z,2.22
2023-04-02T00:14:33.767Z,2.03
2023-04-02T00:18:18.314Z,2.97
2023-04-02T00:22:02.194Z,2.22
2023-04-02T00:25:46.204Z,2.38
2023-04-02T00:29:27.909Z,2.63
2023-04-02T00:33:19.888Z,2.58
2023-04-02T00:37:02.132Z,2.20
2023-04-02T00:40:44.112Z,2.30
2023-04-02T00:44:32.755Z,2.30
2023-04-02T00:48:27.616Z,2.20
2023-04-02T00:52:16.818Z,2.63
2023-04-02T00:55:59.054Z,2.20
2023-04-02T01:00:07.832Z,2.30
2023-04-02T01:07:55.304Z,2.53
2023-04-02T01:11:55.551Z,2.33
2023-04-02T01:16:05.817Z,2.70
2023-04-02T01:20:16.854Z,2.58
2023-04-02T01:24:05.574Z,2.63
2023-04-02T01:28:09.630Z,2.67
2023-04-02T01:31:53.331Z,2.70
2023-04-02T01:35:44.547Z,2.80
2023-04-02T01:39:39.892Z,3.20
2023-04-02T01:43:29.084Z,3.13
2023-04-02T01:47:13.950Z,2.78
2023-04-02T01:50:58.180Z,2.78
2023-04-02T01:54:41.317Z,2.75
2023-04-02T01:58:26.253Z,3.20
2023-04-02T02:02:12.981Z,2.72
2023-04-02T02:05:55.628Z,2.80
2023-04-02T02:09:37.633Z,3.35
2023-04-02T02:13:20.818Z,3.28
2023-04-02T02:17:04.891Z,3.00
2023-04-02T02:20:47.390Z,3.08
2023-04-02T02:24:32.160Z,3.88
2023-04-02T02:28:31.288Z,3.45
2023-04-02T02:32:15.925Z,3.50
2023-04-02T02:36:13.781Z,3.55
2023-04-02T02:39:59.485Z,3.08
2023-04-02T02:43:59.215Z,3.53
2023-04-02T02:47:43.748Z,3.50
2023-04-02T02:51:37.977Z,3.60
2023-04-02T02:55:24.445Z,3.47
2023-04-02T02:59:09.111Z,3.53
2023-04-02T03:02:53.247Z,3.60
2023-04-02T03:06:36.636Z,3.33
2023-04-02T03:10:28.781Z,4.50
2023-04-02T03:14:38.376Z,3.85
2023-04-02T03:18:29.544Z,3.55
2023-04-02T03:22:27.663Z,3.92
2023-04-02T03:26:09.320Z,3.70
2023-04-02T03:30:04.573Z,3.70
2023-04-02T03:33:59.693Z,3.70
2023-04-02T03:37:48.380Z,3.40
2023-04-02T03:41:52.362Z,3.70
2023-04-02T03:45:41.340Z,3.40
2023-04-02T03:49:34.266Z,3.70
2023-04-02T03:53:16.151Z,4.05
2023-04-02T03:56:58.652Z,3.40
2023-04-02T04:00:58.682Z,4.00
2023-04-02T04:04:42.915Z,4.47
2023-04-02T04:08:32.812Z,4.18
2023-04-02T04:12:36.937Z,4.00
2023-04-02T04:16:24.945Z,4.10
2023-04-02T04:23:51.466Z,4.03
2023-04-02T04:27:56.633Z,3.97
2023-04-02T04:31:55.147Z,4.10
2023-04-02T04:35:46.550Z,4.15
2023-04-02T04:39:42.397Z,4.40
2023-04-02T04:43:34.873Z,4.13
2023-04-02T04:47:39.583Z,4.15
2023-04-02T04:51:39.084Z,4.50
2023-04-02T04:55:30.737Z,4.70
2023-04-02T04:59:41.489Z,4.25
2023-04-02T05:03:44.797Z,4.55
2023-04-02T05:07:31.492Z,4.88
2023-04-02T05:11:32.242Z,4.40
2023-04-02T05:15:40.142Z,4.85
2023-04-02T05:19:39.843Z,4.93
2023-04-02T05:23:44.304Z,5.15
2023-04-02T05:27:39.517Z,5.15
2023-04-02T05:31:40.397Z,4.88
2023-04-02T05:35:28.596Z,5.40
2023-04-02T05:39:11.285Z,5.32
2023-04-02T05:42:53.251Z,4.82
2023-04-02T05:46:47.505Z,5.50
2023-04-02T05:50:37.166Z,5.50
2023-04-02T05:54:28.021Z,5.10
2023-04-02T05:58:38.454Z,5.20
2023-04-02T06:02:31.017Z,6.03
2023-04-02T06:06:28.531Z,5.47
2023-04-02T06:10:11.787Z,5.78
2023-04-02T06:13:53.627Z,5.40
2023-04-02T06:17:47.960Z,6.15
2023-04-02T06:21:29.691Z,5.63
2023-04-02T06:25:27.111Z,5.80
2023-04-02T06:29:40.805Z,5.57
2023-04-02T06:33:22.541Z,5.50
2023-04-02T06:37:19.842Z,5.45
2023-04-02T06:41:08.327Z,5.57
2023-04-02T06:44:50.840Z,5.50
2023-04-02T06:48:35.903Z,5.80
2023-04-02T06:52:29.224Z,5.57
2023-04-02T06:56:34.435Z,5.68
2023-04-02T07:00:27.026Z,5.38
2023-04-02T07:04:09.924Z,5.78
2023-04-02T07:07:51.882Z,5.30
2023-04-02T07:11:33.943Z,5.57
2023-04-02T07:15:19.829Z,5.65
2023-04-02T07:19:04.103Z,5.78
2023-04-02T07:22:46.312Z,5.75
2023-04-02T07:26:28.194Z,5.60
2023-04-02T07:30:10.404Z,5.35
2023-04-02T07:33:53.762Z,6.22
2023-04-02T07:37:36.030Z,4.80
2023-04-02T07:41:19.563Z,5.50
2023-04-02T07:45:02.097Z,5.68
2023-04-02T07:48:45.908Z,4.80
2023-04-02T07:52:27.660Z,4.82
2023-04-02T07:56:14.943Z,5.10
2023-04-02T07:59:57.094Z,4.72
2023-04-02T08:03:38.870Z,5.18
2023-04-02T08:07:20.691Z,5.85
2023-04-02T08:11:02.427Z,5.05
2023-04-02T08:14:44.345Z,5.28
2023-04-02T08:18:27.003Z,5.15
2023-04-02T08:22:08.727Z,4.47
2023-04-02T08:25:51.545Z,4.82
2023-04-02T08:29:33.380Z,4.10
2023-04-02T08:33:16.635Z,3.63
2023-04-02T08:36:59.010Z,3.63
2023-04-02T08:40:43.976Z,3.15
2023-04-02T08:45:23.562Z,3.08
2023-04-02T08:49:22.952Z,2.10
2023-04-02T08:53:20.832Z,2.40
2023-04-02T08:57:27.205Z,2.80
2023-04-02T09:02:00.053Z,3.00
2023-04-02T09:05:44.062Z,2.90
2023-04-02T09:09:26.703Z,3.20
2023-04-02T09:13:19.947Z,3.30
2023-04-02T09:17:08.900Z,3.10
2023-04-02T09:20:50.744Z,3.55
2023-04-02T09:24:33.510Z,3.90
2023-04-02T09:28:16.136Z,3.83
2023-04-02T09:32:02.708Z,3.40
2023-04-02T09:35:50.510Z,3.53
2023-04-02T09:39:32.267Z,3.35
2023-04-02T09:43:17.673Z,3.17
2023-04-02T09:47:05.278Z,3.78
2023-04-02T09:50:47.022Z,3.72
2023-04-02T09:54:29.190Z,3.15
2023-04-02T09:58:11.396Z,3.17
2023-04-02T10:01:56.569Z,2.65
2023-04-02T10:05:41.033Z,3.03
2023-04-02T10:09:32.413Z,2.58
2023-04-02T10:13:31.923Z,5.07
2023-04-02T10:17:40.608Z,3.92
2023-04-02T10:21:28.310Z,2.97
2023-04-02T10:25:17.884Z,4.25
2023-04-02T10:29:34.193Z,2.90
2023-04-02T10:33:30.310Z,3.25
2023-04-02T10:37:42.749Z,2.83
2023-04-02T10:41:46.740Z,2.72
2023-04-02T10:45:34.350Z,2.60
2023-04-02T10:49:39.245Z,3.60
2023-04-02T10:53:31.455Z,3.25
2023-04-02T10:57:22.087Z,3.10
2023-04-02T11:01:16.926Z,2.22
2023-04-02T11:05:07.034Z,2.30
2023-04-02T11:08:52.062Z,2.22
2023-04-02T11:12:52.755Z,2.22
2023-04-02T11:16:37.001Z,2.40
2023-04-02T11:20:43.919Z,3.63
2023-04-02T11:24:34.437Z,3.45
2023-04-02T11:28:31.350Z,3.53
2023-04-02T11:32:22.181Z,3.30
2023-04-02T11:36:04.054Z,2.92
2023-04-02T11:39:53.350Z,3.05
2023-04-02T11:43:35.783Z,3.08
2023-04-02T11:47:25.450Z,2.92
2023-04-02T11:51:36.185Z,3.08
2023-04-02T11:55:24.756Z,3.08
2023-04-02T11:59:23.008Z,2.80
2023-04-02T12:03:42.524Z,2.92
2023-04-02T12:07:55.956Z,2.90
2023-04-02T12:11:40.078Z,2.55
2023-04-02T12:15:41.279Z,2.65
2023-04-02T12:19:24.501Z,2.67
2023-04-02T12:23:06.861Z,2.50
2023-04-02T12:26:48.729Z,2.70
2023-04-02T12:30:30.531Z,2.97
2023-04-02T12:34:16.910Z,2.50
2023-04-02T12:37:58.816Z,2.50
2023-04-02T12:41:40.835Z,2.60
2023-04-02T12:45:29.864Z,2.50
2023-04-02T12:49:41.258Z,2.90
2023-04-02T12:53:45.325Z,2.38
2023-04-02T12:57:30.249Z,3.15
2023-04-02T13:01:24.563Z,2.20
2023-04-02T13:05:06.702Z,2.30
2023-04-02T13:08:48.753Z,2.20
2023-04-02T13:12:41.064Z,2.40
2023-04-02T13:16:34.892Z,3.10
2023-04-02T13:20:36.137Z,2.70
2023-04-02T13:24:23.175Z,3.00
2023-04-02T13:28:04.918Z,2.55
2023-04-02T13:31:46.692Z,2.53
2023-04-02T13:35:28.466Z,2.30
2023-04-02T13:39:10.355Z,2.50
2023-04-02T13:42:52.087Z,2.80
2023-04-02T13:46:35.832Z,2.22
2023-04-02T13:50:20.423Z,2.90
2023-04-02T13:54:02.415Z,2.30
2023-04-02T13:57:44.252Z,2.72
2023-04-02T14:01:27.074Z,2.50
2023-04-02T14:05:25.657Z,2.50
2023-04-02T14:09:24.865Z,2.70
2023-04-02T14:13:36.010Z,2.58
2023-04-02T14:17:52.792Z,2.40
2023-04-02T14:22:04.459Z,2.60
2023-04-02T14:25:55.344Z,2.13
2023-04-02T14:30:07.759Z,2.72
2023-04-02T14:33:55.782Z,2.30
2023-04-02T14:42:13.835Z,2.40
2023-04-02T14:46:01.845Z,3.22
2023-04-02T14:53:33.933Z,2.40
2023-04-02T14:57:33.306Z,2.53
2023-04-02T15:01:25.463Z,2.53
2023-04-02T15:05:18.610Z,2.80
2023-04-02T15:09:30.078Z,2.90
2023-04-02T15:13:19.970Z,2.10
2023-04-02T15:17:01.779Z,2.13
2023-04-02T15:20:52.312Z,2.30
2023-04-02T15:24:43.381Z,2.85
2023-04-02T15:28:43.667Z,2.80
2023-04-02T15:32:35.025Z,2.22
2023-04-02T15:36:36.865Z,2.83
2023-04-02T15:40:47.367Z,2.58
2023-04-02T15:44:29.597Z,2.45
2023-04-02T15:48:40.806Z,2.70
2023-04-02T15:52:58.950Z,2.50
2023-04-02T15:57:07.655Z,2.28
2023-04-02T16:01:10.672Z,2.80
2023-04-02T16:05:41.764Z,2.55
2023-04-02T16:09:30.654Z,3.15
2023-04-02T16:13:26.522Z,2.45
2023-04-02T16:17:35.158Z,2.60
2023-04-02T16:21:27.130Z,2.53
2023-04-02T16:25:22.988Z,2.30
2023-04-02T16:29:22.576Z,2.53
2023-04-02T16:33:10.059Z,2.53
2023-04-02T16:37:09.667Z,2.72
2023-04-02T16:41:08.909Z,2.60
2023-04-02T16:44:56.970Z,2.67
2023-04-02T16:48:52.878Z,2.60
2023-04-02T16:52:37.475Z,2.38
2023-04-02T16:56:53.175Z,2.65
2023-04-02T17:00:56.233Z,2.63
2023-04-02T17:04:52.829Z,2.75
2023-04-02T17:08:54.313Z,2.53
2023-04-02T17:12:47.517Z,2.60
2023-04-02T17:16:42.513Z,2.55
2023-04-02T17:20:26.009Z,2.83
2023-04-02T17:24:17.085Z,3.22
2023-04-02T17:27:58.773Z,2.40
2023-04-02T17:31:42.288Z,5.07
2023-04-02T17:35:49.164Z,2.55
2023-04-02T17:39:44.324Z,2.80
2023-04-02T17:43:51.194Z,3.30
2023-04-02T17:47:57.841Z,2.97
2023-04-02T17:51:51.803Z,2.85
2023-04-02T17:55:34.085Z,3.13
2023-04-02T17:59:47.804Z,2.92
2023-04-02T18:03:47.821Z,3.17
2023-04-02T18:07:51.217Z,3.20
2023-04-02T18:11:44.868Z,3.53
2023-04-02T18:15:35.614Z,2.72
2023-04-02T18:19:26.078Z,3.08
2023-04-02T18:23:39.701Z,6.65
2023-04-02T18:27:42.986Z,4.30
2023-04-02T18:31:46.337Z,3.85
2023-04-02T18:35:32.741Z,3.70
2023-04-02T18:39:38.470Z,4.03
2023-04-02T18:43:35.762Z,6.57
2023-04-02T18:47:38.999Z,5.60
2023-04-02T18:51:23.445Z,4.93
2023-04-02T18:55:13.292Z,6.50
2023-04-02T18:59:19.001Z,6.30
2023-04-02T19:03:12.821Z,5.57
2023-04-02T19:07:05.243Z,5.93
2023-04-02T19:10:52.644Z,5.82
2023-04-02T19:14:34.874Z,6.50
2023-04-02T19:18:22.772Z,5.85
2023-04-02T19:22:18.894Z,7.80
2023-04-02T19:26:05.704Z,5.45
2023-04-02T19:30:06.627Z,5.18
2023-04-02T19:34:01.998Z,5.68
2023-04-02T19:38:01.862Z,8.70
2023-04-02T19:41:53.084Z,9.40
2023-04-02T19:45:43.210Z,6.20
2023-04-02T19:49:28.434Z,4.90
2023-04-02T19:53:10.576Z,4.45
2023-04-02T19:56:52.370Z,5.60
2023-04-02T20:00:34.382Z,5.68
2023-04-02T20:04:16.240Z,5.95
2023-04-02T20:07:58.133Z,4.10
2023-04-02T20:11:39.852Z,5.95
2023-04-02T20:15:21.672Z,8.02
2023-04-02T20:19:03.489Z,4.53
2023-04-02T20:22:45.389Z,4.50
2023-04-02T20:26:27.653Z,5.10
2023-04-02T20:30:09.770Z,5.30
2023-04-02T20:33:58.737Z,4.68
2023-04-02T20:37:41.894Z,4.72
2023-04-02T20:41:23.942Z,4.70
2023-04-02T20:45:07.522Z,4.78
2023-04-02T20:48:49.320Z,5.25
2023-04-02T20:52:32.980Z,6.30
2023-04-02T20:56:16.944Z,5.43
2023-04-02T20:59:59.039Z,5.32
2023-04-02T21:03:41.104Z,5.13
2023-04-02T21:07:22.856Z,5.28
2023-04-02T21:11:05.544Z,4.72
2023-04-02T21:14:48.569Z,4.50
2023-04-02T21:18:30.625Z,4.40
2023-04-02T21:22:12.376Z,4.35
2023-04-02T21:26:06.440Z,4.22
2023-04-02T21:29:48.167Z,4.55
2023-04-02T21:33:31.229Z,4.78
2023-04-02T21:37:13.498Z,4.30
2023-04-02T21:40:55.360Z,4.70
2023-04-02T21:44:37.116Z,4.22
2023-04-02T21:48:19.215Z,4.25
2023-04-02T21:52:01.016Z,4.70
2023-04-02T21:55:42.715Z,5.93
2023-04-02T21:59:24.646Z,5.35
2023-04-02T22:03:06.427Z,5.70
2023-04-02T22:06:48.318Z,5.57
2023-04-02T22:10:30.219Z,5.22
2023-04-02T22:14:12.493Z,5.13
2023-04-02T22:17:54.214Z,4.65
2023-04-02T22:21:37.108Z,4.22
2023-04-02T22:25:18.848Z,3.90
2023-04-02T22:29:01.478Z,3.60
2023-04-02T22:32:44.083Z,3.55
2023-04-02T22:36:28.172Z,4.05
2023-04-02T22:40:10.336Z,3.65
2023-04-02T22:43:52.392Z,4.70
2023-04-02T22:47:34.153Z,3.78
2023-04-02T22:51:18.127Z,3.85
2023-04-02T22:54:59.954Z,3.92
2023-04-02T22:58:42.161Z,3.80
2023-04-02T23:02:23.902Z,4.00
2023-04-02T23:06:08.840Z,3.75
2023-04-02T23:09:50.870Z,3.45
2023-04-02T23:13:33.660Z,3.53
2023-04-02T23:17:15.551Z,3.47
2023-04-02T23:20:57.501Z,3.53
2023-04-02T23:24:39.258Z,3.53
2023-04-02T23:28:21.100Z,4.18
2023-04-02T23:32:02.868Z,3.40
2023-04-02T23:35:44.593Z,5.30
2023-04-02T23:39:26.332Z,9.23
2023-04-02T23:43:08.079Z,4.13
2023-04-02T23:46:49.805Z,3.58
2023-04-02T23:50:31.565Z,3.47
2023-04-02T23:54:14.453Z,3.10
2023-04-02T23:57:56.226Z,3.50
